Carmel Valley, CA (93924)

1:03 AM PST on December 29, 2014 (GMT -0800)
Chews Ridge | Change Station
CLOSE
Current Station
Personal Weather Station
Location: Carmel Valley, CA
Elevation: 4790 ft
Nearby Weather Stations

Elev 4790 ft 36.31 °N, 121.57 °W | Updated 4 minutes ago

Clear
Clear
47.6 °F
Feels Like 43 °F
N
9.0
Wind Variable Wind from NNW

Today
High -- | Low -- °F
--% Chance of Precip.
Yesterday
High -- | Low -- °F
Precip. -- in
7:17 AM 5:00 PM
First Quarter, 57% visible
Pressure 30.28 in
Visibility 10.0 miles
Clouds Clear
Windchill 43 °F
Dew Point -13 °F
Humidity 7%
Rainfall -999.00 in
Snow Depth Not available.
UV 0 out of 12
Pollen 5.30 out of 12
Air Quality Not available.
Flu Activity Not available.
METAR KMRY 290854Z AUTO 09003KT 10SM CLR 06/03 A3023 RMK AO2 SLP252 T00560033 58007

More Conditions Fewer Conditions

Pressure 30.28 in
Visibility 10.0 miles
Clouds Clear
Windchill 43 °F
Dew Point -13 °F
Humidity 7%
Rainfall -999.00 in
Snow Depth Not available.
UV 0 out of 12
Pollen 5.30 out of 12
Air Quality Not available.
Flu Activity Not available.
METAR KMRY 290854Z AUTO 09003KT 10SM CLR 06/03 A3023 RMK AO2 SLP252 T00560033 58007

More Conditions Fewer Conditions

10-Day Weather Forecast

Almanac

Astronomy

Dec. 29, 2014 Rise Set
Actual Time
Civil Twilight
Nautical Twilight
Astronomical Twilight
Moon
Length of Visible Light
Length of Day
Tomorrow will be .
, % of the Moon is Illuminated

Today's Extremes

State Highs State Lows

Community

WunderPhotos

Upload Photos

1,781,559 photos uploaded!

WunderBlogs® & News

Nearby

Air Quality

  Air Quality AQ Index Pollutant
Not available.

Snow Depth

Station Depth Elevation

Earthquake Activity

City Distance Mag. Time & Date
Minimum magnitude displayed is 2.5.

Coastal Water Temperatures

Place Temperature

Nearby Weather Stations